createdAt,value
2022-09-25T00:02:59.295Z,4.03
2022-09-25T00:08:21.143Z,4.97
2022-09-25T00:13:44.566Z,3.63
2022-09-25T00:19:25.082Z,2.28
2022-09-25T00:24:47.036Z,5.93
2022-09-25T00:30:10.889Z,4.03
2022-09-25T00:35:33.835Z,1.75
2022-09-25T00:40:56.079Z,3.97
2022-09-25T00:46:27.866Z,2.33
2022-09-25T00:51:55.633Z,3.08
2022-09-25T00:57:26.876Z,2.60
2022-09-25T01:02:54.021Z,1.83
2022-09-25T01:08:20.424Z,3.08
2022-09-25T01:13:42.390Z,2.03
2022-09-25T01:19:29.164Z,5.03
2022-09-25T01:24:53.562Z,2.78
2022-09-25T01:30:18.858Z,2.72
2022-09-25T01:35:52.409Z,2.55
2022-09-25T01:41:30.561Z,2.08
2022-09-25T01:46:54.111Z,2.42
2022-09-25T01:52:21.079Z,1.40
2022-09-25T01:57:53.907Z,2.60
2022-09-25T02:03:25.811Z,3.15
2022-09-25T02:08:54.143Z,1.20
2022-09-25T02:14:21.968Z,2.10
2022-09-25T02:20:06.483Z,2.42
2022-09-25T02:25:38.592Z,1.80
2022-09-25T02:31:02.151Z,1.70
2022-09-25T02:36:24.290Z,1.35
2022-09-25T02:41:48.738Z,1.15
2022-09-25T02:47:34.833Z,1.27
2022-09-25T02:53:08.353Z,1.10
2022-09-25T02:58:37.174Z,1.88
2022-09-25T03:04:00.616Z,1.80
2022-09-25T03:09:23.661Z,1.73
2022-09-25T03:14:45.431Z,1.38
2022-09-25T03:20:10.175Z,1.85
2022-09-25T03:25:31.853Z,0.90
2022-09-25T03:31:01.309Z,1.38
2022-09-25T03:36:25.165Z,1.98
2022-09-25T03:41:48.007Z,1.25
2022-09-25T03:47:09.734Z,2.63
2022-09-25T03:52:31.460Z,1.88
2022-09-25T03:57:53.173Z,1.63
2022-09-25T04:03:18.379Z,3.57
2022-09-25T04:08:40.255Z,2.58
2022-09-25T04:14:02.281Z,2.15
2022-09-25T04:19:23.977Z,0.40
2022-09-25T04:24:51.314Z,1.42
2022-09-25T04:30:13.398Z,2.60
2022-09-25T04:35:35.071Z,0.95
2022-09-25T04:40:58.068Z,1.00
2022-09-25T04:46:22.317Z,1.95
2022-09-25T04:51:44.456Z,1.33
2022-09-25T04:57:06.172Z,1.83
2022-09-25T05:02:28.571Z,2.00
2022-09-25T05:07:54.364Z,1.52
2022-09-25T05:13:16.086Z,0.70
2022-09-25T05:18:37.780Z,1.85
2022-09-25T05:23:59.774Z,0.88
2022-09-25T05:29:21.450Z,2.03
2022-09-25T05:34:43.083Z,2.85
2022-09-25T05:40:05.222Z,1.23
2022-09-25T05:45:26.864Z,0.73
2022-09-25T05:50:55.546Z,1.60
2022-09-25T05:56:17.491Z,2.13
2022-09-25T06:01:39.341Z,0.60
2022-09-25T06:07:02.734Z,0.63
2022-09-25T06:12:25.022Z,0.35
2022-09-25T06:17:46.654Z,2.50
2022-09-25T06:23:08.291Z,1.25
2022-09-25T06:28:31.185Z,0.70
2022-09-25T06:33:52.966Z,0.77
2022-09-25T06:39:14.695Z,1.58
2022-09-25T06:44:36.712Z,0.43
2022-09-25T06:49:58.386Z,1.10
2022-09-25T06:55:20.006Z,0.68
2022-09-25T07:00:45.846Z,0.52
2022-09-25T07:06:09.110Z,0.30
2022-09-25T07:11:31.555Z,2.00
2022-09-25T07:16:53.227Z,1.17
2022-09-25T07:22:14.878Z,2.17
2022-09-25T07:27:37.056Z,1.80
2022-09-25T07:33:00.285Z,3.78
2022-09-25T07:38:22.881Z,1.52
2022-09-25T07:43:45.283Z,3.35
2022-09-25T07:49:07.246Z,2.20
2022-09-25T07:54:28.907Z,2.38
2022-09-25T07:59:50.617Z,2.72
2022-09-25T08:05:12.526Z,14.93
2022-09-25T08:10:34.200Z,4.55
2022-09-25T08:15:56.697Z,1.70
2022-09-25T08:21:20.579Z,1.40
2022-09-25T08:26:42.247Z,1.95
2022-09-25T08:32:03.911Z,4.22
2022-09-25T08:37:25.569Z,3.25
2022-09-25T08:42:52.572Z,2.85
2022-09-25T08:48:41.545Z,5.15
2022-09-25T08:54:04.843Z,2.92
2022-09-25T08:59:33.699Z,3.47
2022-09-25T09:04:58.042Z,4.70
2022-09-25T09:10:34.201Z,5.47
2022-09-25T09:16:04.286Z,9.18
2022-09-25T09:21:45.932Z,11.77
2022-09-25T09:27:33.542Z,4.22
2022-09-25T09:33:28.144Z,4.60
2022-09-25T09:39:20.258Z,6.07
2022-09-25T09:44:50.248Z,2.92
2022-09-25T09:50:12.000Z,2.72
2022-09-25T09:55:45.296Z,4.93
2022-09-25T10:01:28.935Z,8.30
2022-09-25T10:07:14.141Z,1.95
2022-09-25T10:12:37.704Z,4.13
2022-09-25T10:18:02.147Z,2.95
2022-09-25T10:23:47.028Z,3.40
2022-09-25T10:29:40.881Z,14.23
2022-09-25T10:35:03.727Z,14.45
2022-09-25T10:40:28.205Z,15.70
2022-09-25T10:46:13.156Z,16.50
2022-09-25T10:51:34.921Z,12.93
2022-09-25T10:56:56.812Z,4.43
2022-09-25T11:02:40.373Z,7.72
2022-09-25T11:08:05.662Z,7.05
2022-09-25T11:13:30.660Z,8.23
2022-09-25T11:19:07.696Z,5.35
2022-09-25T11:24:44.431Z,7.25
2022-09-25T11:30:20.245Z,6.18
2022-09-25T11:35:56.855Z,5.25
2022-09-25T11:41:41.583Z,5.40
2022-09-25T11:47:35.087Z,3.70
2022-09-25T11:53:06.304Z,6.60
2022-09-25T11:58:46.295Z,7.72
2022-09-25T12:04:07.920Z,5.57
2022-09-25T12:09:52.973Z,4.20
2022-09-25T12:15:36.668Z,7.43
2022-09-25T12:21:06.812Z,5.28
2022-09-25T12:26:52.712Z,3.92
2022-09-25T12:32:23.098Z,6.17
2022-09-25T12:38:11.998Z,2.83
2022-09-25T12:43:41.377Z,5.80
2022-09-25T12:49:27.027Z,1.50
2022-09-25T12:54:58.324Z,18.50
2022-09-25T13:00:23.714Z,10.07
2022-09-25T13:06:06.162Z,14.30
2022-09-25T13:11:39.198Z,10.95
2022-09-25T13:17:01.431Z,8.63
2022-09-25T13:22:25.309Z,8.73
2022-09-25T13:27:47.577Z,5.72
2022-09-25T13:33:20.272Z,2.63
2022-09-25T13:39:04.802Z,8.35
2022-09-25T13:44:41.282Z,6.28
2022-09-25T13:50:17.663Z,5.65
2022-09-25T13:55:48.228Z,3.70
2022-09-25T14:01:33.478Z,3.65
2022-09-25T14:07:04.922Z,3.35
2022-09-25T14:12:42.431Z,3.20
2022-09-25T14:18:09.072Z,3.60
2022-09-25T14:23:33.512Z,1.73
2022-09-25T14:28:57.385Z,2.75
2022-09-25T14:34:30.787Z,3.58
2022-09-25T14:40:22.398Z,5.20
2022-09-25T14:46:01.496Z,3.55
2022-09-25T14:51:27.328Z,6.10
2022-09-25T14:56:55.050Z,2.38
2022-09-25T15:02:26.631Z,3.80
2022-09-25T15:07:48.359Z,1.83
2022-09-25T15:13:20.960Z,5.85
2022-09-25T15:18:56.321Z,2.58
2022-09-25T15:24:24.630Z,2.23
2022-09-25T15:29:48.342Z,1.25
2022-09-25T15:35:17.495Z,1.60
2022-09-25T15:40:40.413Z,2.40
2022-09-25T15:46:07.900Z,3.28
2022-09-25T15:51:33.698Z,5.47
2022-09-25T15:56:57.442Z,6.10
2022-09-25T16:02:40.038Z,5.18
2022-09-25T16:08:24.219Z,5.88
2022-09-25T16:13:49.306Z,4.68
2022-09-25T16:19:41.093Z,4.63
2022-09-25T16:25:02.949Z,5.32
2022-09-25T16:30:24.713Z,3.55
2022-09-25T16:36:10.253Z,3.33
2022-09-25T16:41:30.546Z,3.30
2022-09-25T16:46:54.958Z,3.10
2022-09-25T16:52:20.993Z,2.35
2022-09-25T16:57:46.145Z,3.35
2022-09-25T17:03:12.199Z,12.15
2022-09-25T17:08:33.915Z,13.75
2022-09-25T17:13:56.398Z,6.93
2022-09-25T17:19:19.315Z,10.57
2022-09-25T17:24:41.108Z,8.88
2022-09-25T17:30:02.793Z,9.30
2022-09-25T17:35:46.402Z,7.10
2022-09-25T17:41:20.848Z,9.00
2022-09-25T17:46:43.050Z,13.98
2022-09-25T17:52:05.264Z,10.38
2022-09-25T17:57:27.848Z,20.58
2022-09-25T18:02:49.630Z,22.88
2022-09-25T18:08:12.546Z,18.70
2022-09-25T18:13:37.868Z,15.43
2022-09-25T18:19:21.906Z,14.65
2022-09-25T18:24:43.588Z,17.48
2022-09-25T18:30:05.892Z,10.68
2022-09-25T18:35:27.577Z,14.57
2022-09-25T18:40:49.357Z,13.18
2022-09-25T18:46:11.148Z,13.55
2022-09-25T18:51:34.211Z,30.75
2022-09-25T18:56:58.646Z,33.50
2022-09-25T19:02:25.090Z,22.60
2022-09-25T19:07:46.840Z,27.02
2022-09-25T19:13:08.575Z,23.48
2022-09-25T19:18:30.212Z,22.50
2022-09-25T19:23:52.233Z,24.08
2022-09-25T19:29:14.072Z,20.10
2022-09-25T19:34:36.110Z,26.45
2022-09-25T19:40:16.768Z,28.00
2022-09-25T19:45:38.508Z,22.88
2022-09-25T19:51:06.273Z,28.42
2022-09-25T19:56:27.905Z,32.90
2022-09-25T20:01:49.597Z,26.25
2022-09-25T20:07:15.611Z,35.13
2022-09-25T20:12:37.229Z,34.58
2022-09-25T20:17:59.607Z,28.50
2022-09-25T20:23:21.253Z,32.42
2022-09-25T20:28:43.795Z,33.58
2022-09-25T20:34:06.344Z,35.35
2022-09-25T20:39:28.235Z,32.70
2022-09-25T20:44:50.124Z,32.10
2022-09-25T20:50:11.865Z,29.65
2022-09-25T20:55:38.110Z,39.58
2022-09-25T21:01:02.586Z,36.97
2022-09-25T21:06:27.090Z,34.58
2022-09-25T21:11:49.538Z,36.75
2022-09-25T21:17:11.481Z,32.00
2022-09-25T21:22:33.250Z,33.83
2022-09-25T21:27:55.498Z,32.53
2022-09-25T21:33:17.193Z,30.05
2022-09-25T21:38:39.474Z,27.45
2022-09-25T21:44:07.461Z,27.30
2022-09-25T21:49:29.633Z,29.77
2022-09-25T21:54:51.388Z,23.52
2022-09-25T22:00:13.948Z,21.92
2022-09-25T22:05:36.316Z,22.02
2022-09-25T22:10:59.186Z,20.55
2022-09-25T22:16:26.842Z,20.98
2022-09-25T22:21:50.299Z,20.45
2022-09-25T22:27:11.969Z,22.65
2022-09-25T22:32:33.638Z,17.08
2022-09-25T22:37:55.294Z,16.80
2022-09-25T22:43:17.010Z,13.88
2022-09-25T22:48:39.653Z,17.70
2022-09-25T22:54:01.335Z,16.02
2022-09-25T22:59:23.031Z,14.60
2022-09-25T23:04:46.282Z,16.38
2022-09-25T23:10:08.585Z,16.08
2022-09-25T23:15:30.452Z,15.45
2022-09-25T23:20:54.189Z,14.18
2022-09-25T23:26:15.899Z,15.98
2022-09-25T23:31:37.561Z,13.18
2022-09-25T23:36:59.209Z,14.88
2022-09-25T23:42:22.291Z,14.27
2022-09-25T23:47:44.129Z,13.65
2022-09-25T23:53:06.121Z,14.55
2022-09-25T23:58:28.349Z,17.25
